Flight Track Log - Related Links

Times and Time Zones

All times are in EDT time to prevent confusion due to time zone crossing. See the UAL4588 flight status page for this flight to view local times or setup timezone preferences in your user account.

Time Position Orientation Groundspeed Altitude Reporting Facility
EDT Latitude Longitude Course Direction KTS MPH feet Rate Location/Type
Fri 07:03:06 AM 30.3481 -89.0925 236° Southwest 191 220 2,600  Level Houston Center
Fri 07:04:07 AM 30.3053 -89.1486 229° Southwest 221 254 4,600 2,033 Climbing Houston Center
Fri 07:05:07 AM 30.2561 -89.2044 224° Southwest 239 275 6,700 2,231 Climbing Houston Center
Fri 07:06:00 AM 30.1619 -89.4730 229° Southwest  Level FlightAware Approximate
Fri 07:06:08 AM 30.2053 -89.2606 224° Southwest 247 284 9,100  Level Houston Center
Fri 07:07:00 AM 30.1076 -89.5485 235° Southwest  Level FlightAware Approximate
Fri 07:07:08 AM 30.1478 -89.3047 214° Southwest 247 284 10,900  Level Houston Center
Fri 07:08:00 AM 30.0535 -89.6393 236° Southwest  Level FlightAware Approximate
Fri 07:08:09 AM 30.0875 -89.3544 216° Southwest 254 292 12,200  Level Houston Center
Fri 07:09:09 AM 30.0219 -89.4097 216° Southwest 273 314 13,400 1,240 Climbing Houston Center
Fri 07:10:10 AM 29.9411 -89.4469 202° Southwest 308 354 14,700 1,131 Climbing Houston Center
Fri 07:11:11 AM 29.8578 -89.4742 196° South 312 359 15,700 1,033 Climbing Houston Center
Fri 07:12:12 AM 29.7692 -89.5044 197° South 325 374 16,800 1,041 Climbing Houston Center
Fri 07:13:12 AM 29.6781 -89.5325 195° South 334 384 17,800 1,041 Climbing Houston Center
Fri 07:14:13 AM 29.5919 -89.5711 201° Southwest 336 387 18,900 595 Climbing Houston Center
Fri 07:15:13 AM 29.5244 -89.6517 226° Southwest 348 400 19,000 496 Climbing Houston Center
Fri 07:16:14 AM 29.4572 -89.7389 228° Southwest 360 414 19,900 1,033 Climbing Houston Center
Fri 07:17:15 AM 29.3775 -89.8425 229° Southwest 361 415 21,100 1,033 Climbing Houston Center
Fri 07:18:16 AM 29.3114 -89.9272 228° Southwest 357 411 22,000 934 Climbing Houston Center
Fri 07:19:17 AM 29.2464 -90.0122 229° Southwest 355 409 23,000 942 Climbing Houston Center
Fri 07:20:17 AM 29.1781 -90.0925 226° Southwest 354 407 23,900 496 Climbing Houston Center
Fri 07:21:18 AM 29.0883 -90.1517 210° Southwest 371 427 24,000 49 Climbing Houston Center
Fri 07:22:19 AM 28.9950 -90.2142 210° Southwest 386 444 24,000  Level Houston Center
Fri 07:23:20 AM 28.9000 -90.2797 211° Southwest 397 457 24,000 -49 Level Houston Center
Fri 07:24:21 AM 28.8300 -90.3733 230° Southwest 399 459 23,900  Descending Houston Center
Fri 07:25:21 AM 28.7758 -90.4814 240° Southwest 394 453 24,000 50 Climbing Houston Center
Fri 07:26:22 AM 28.7353 -90.5989 249° West 400 460 24,000  Level Houston Center
Fri 07:27:23 AM 28.7006 -90.7172 252° West 396 456 24,000  Level Houston Center
Fri 07:28:24 AM 28.6653 -90.8361 251° West 396 456 24,000  Level Houston Center
Fri 07:29:25 AM 28.6308 -90.9581 252° West 402 463 24,000  Level Houston Center
Fri 07:30:26 AM 28.5869 -91.0717 246° West 397 457 24,000  Level Houston Center
Fri 07:31:26 AM 28.5408 -91.1825 245° Southwest 392 451 24,000  Level Houston Center
Fri 07:32:27 AM 28.4958 -91.2917 245° Southwest 384 442 24,000  Level Houston Center
Fri 07:33:28 AM 28.4419 -91.4250 245° Southwest 386 444 24,000  Level Houston Center
Fri 07:34:29 AM 28.3964 -91.5369 245° Southwest 389 448 24,000  Level Houston Center
Fri 07:35:30 AM 28.3700 -91.6586 256° West 399 459 24,000  Level Houston Center
Fri 07:36:31 AM 28.3836 -91.7747 278° West 404 465 24,000  Level Houston Center
Fri 07:37:31 AM 28.3981 -91.9022 277° West 405 466 24,000  Level Houston Center
Fri 07:38:32 AM 28.4158 -92.0264 279° West 400 460 24,000  Level Houston Center
Fri 07:39:33 AM 28.4372 -92.1475 281° West 394 453 24,000  Level Houston Center
Fri 07:40:34 AM 28.4642 -92.2675 284° West 392 451 24,000  Level Houston Center
Fri 07:41:35 AM 28.4925 -92.3872 285° West 393 452 24,000  Level Houston Center
Fri 07:42:36 AM 28.5236 -92.5078 286° West 396 456 24,000  Level Houston Center
Fri 07:43:36 AM 28.5567 -92.6528 285° West 395 455 24,000  Level Houston Center
Fri 07:44:37 AM 28.5822 -92.7722 284° West 390 449 24,000  Level Houston Center
Fri 07:45:38 AM 28.6061 -92.8942 283° West 393 452 24,000  Level Houston Center
Fri 07:46:39 AM 28.6286 -93.0175 282° West 397 457 24,000  Level Houston Center
Fri 07:47:40 AM 28.6642 -93.1386 289° West 403 464 24,000 -50 Level Houston Center
Fri 07:48:40 AM 28.7106 -93.2572 294° West 408 470 23,900 -50 Descending Houston Center
Fri 07:49:41 AM 28.7553 -93.3697 294° West 396 456 23,900  Level Houston Center
Fri 07:50:42 AM 28.8025 -93.4831 295° West 394 453 23,900 49 Level Houston Center
Fri 07:51:43 AM 28.8583 -93.5917 300° West 397 457 24,000 49 Climbing Houston Center
Fri 07:52:44 AM 28.9269 -93.6908 308° West 400 460 24,000  Level Houston Center
Fri 07:53:45 AM 29.0108 -93.7808 317° Northwest 412 474 24,000  Level Houston Center
Fri 07:54:46 AM 29.1047 -93.8833 316° Northwest 415 478 24,000 -1,140 Level Houston Center
Fri 07:55:46 AM 29.1878 -93.9714 317° Northwest 410 472 21,700 -2,529 Descending Houston Center
Fri 07:56:47 AM 29.2672 -94.0575 317° Northwest 397 457 18,900 -2,779 Descending Houston Center
Fri 07:57:21 AM 29.3150 -94.1097 316° Northwest 394 453 17,300 -2,754 Descending Houston Center
Fri 07:57:48 AM 29.3467 -94.1431 317° Northwest 394 453 16,100 -2,852 Descending Houston Center
Fri 07:58:22 AM 29.3953 -94.1953 317° Northwest 362 417 14,400 -2,361 Descending Houston Center
Fri 07:58:49 AM 29.4200 -94.2217 317° Northwest 367 422 13,700 -1,377 Descending Houston Center
Fri 07:59:23 AM 29.4639 -94.2703 316° Northwest 344 396 13,000 -689 Descending Houston Center
Fri 07:59:50 AM 29.4883 -94.2961 317° Northwest 343 395 13,000  Level Houston Center
Fri 08:00:18 AM 29.5228 -94.3347 316° Northwest 314 361 13,000 -393 Level Houston Center
Fri 08:00:51 AM 29.5450 -94.3731 304° West 326 375 12,600 -1,500 Descending Houston Center
Fri 08:01:18 AM 29.5675 -94.4250 296° West 307 353 11,500 -1,869 Descending Houston Center
Fri 08:01:52 AM 29.5828 -94.4606 296° West 310 357 10,700 -1,475 Descending Houston Center
Fri 08:02:19 AM 29.6058 -94.5161 296° West 316 364 10,000 -700 Descending Houston Center
Fri 08:02:52 AM 29.6214 -94.5506 297° West 312 359 10,000  Level Houston Center
Fri 08:03:20 AM 29.6439 -94.6050 295° West 308 354 10,000  Level Houston Center
Fri 08:03:53 AM 29.6592 -94.6394 297° West 312 359 10,000 -787 Level Houston Center
Fri 08:04:21 AM 29.6794 -94.6894 295° West 268 308 9,200 -1,574 Descending Houston Center
Fri 08:04:54 AM 29.6922 -94.7189 297° West 283 326 8,400 -1,745 Descending Houston Center
Fri 08:05:16 AM 29.7092 -94.7581 296° West 269 310 7,600 -1,377 Descending Houston Center
Fri 08:05:55 AM 29.7236 -94.7919 296° West 260 299 7,000 -1,279 Descending Houston Center
Fri 08:06:17 AM 29.7394 -94.8311 295° West 236 272 6,300 -1,000 Descending Houston Center
Fri 08:06:55 AM 29.7586 -94.8753 297° West 245 282 6,000 -300 Descending Houston Center
Fri 08:07:17 AM 29.7714 -94.9019 299° West 254 292 6,000  Level Houston Center
Fri 08:07:56 AM 29.7908 -94.9489 296° West 255 293 6,000  Level Houston Center
Fri 08:08:18 AM 29.8017 -94.9775 294° West 260 299 6,000  Level Houston Center
Fri 08:08:57 AM 29.8217 -95.0228 297° West 258 297 6,000  Level Houston Center
Fri 08:09:19 AM 29.8342 -95.0556 294° West 256 295 6,000  Level Houston Center
Fri 08:09:58 AM 29.8528 -95.0972 297° West 259 298 6,000  Level Houston Center
Fri 08:10:20 AM 29.8664 -95.1308 295° West 262 302 6,000  Level Houston Center
Fri 08:10:59 AM 29.8847 -95.1714 298° West 261 300 6,000  Level Houston Center
Fri 08:11:21 AM 29.8967 -95.2069 291° West 261 300 6,000  Level Houston Center
Fri 08:11:59 AM 29.9003 -95.2481 276° West 250 288 6,000  Level Houston Center
Fri 08:12:22 AM 29.8992 -95.2811 268° West 221 254 6,000  Level Houston Center
Fri 08:13:00 AM 29.9000 -95.3169 272° West 219 252 6,000  Level Houston Center
Fri 08:13:29 AM 29.8983 -95.3608 268° West 219 252 6,000  Level Houston Center
Fri 08:14:01 AM 29.9003 -95.3867 275° West 219 252 6,000  Level Houston Center
Fri 08:14:29 AM 29.8983 -95.4308 267° West 225 259 6,000  Level Houston Center
Fri 08:15:02 AM 29.9000 -95.4575 274° West 222 255 6,000  Level Houston Center
Fri 08:15:30 AM 29.8986 -95.5031 268° West 219 252 6,000  Level Houston Center
Fri 08:16:03 AM 29.8986 -95.5278 270° West 221 254 6,000 -1,082 Level Houston Center
Fri 08:16:31 AM 29.8964 -95.5731 267° West 224 258 4,900 -1,869 Descending Houston Center
Fri 08:17:04 AM 29.8978 -95.6125 272° West 222 255 4,100 -1,475 Descending Houston Center
Fri 08:17:32 AM 29.9006 -95.6425 276° West 220 253 3,400 -1,082 Descending Houston Center
Fri 08:18:05 AM 29.9206 -95.6739 306° West 225 259 3,000 -436 Descending Houston Center
Fri 08:18:27 AM 29.9456 -95.6758 356° North 235 270 3,000  Level Houston Center
Fri 08:19:06 AM 29.9697 -95.6417 51° Northeast 235 270 3,000  Level Houston Center
Fri 08:19:34 AM 29.9833 -95.6039 67° East 240 276 3,000  Level Houston Center
Fri 08:20:06 AM 29.9936 -95.5697 71° East 237 273 3,000 -100 Level Houston Center
Fri 08:20:34 AM 29.9933 -95.5303 90° East 224 258 2,900 -214 Descending Houston Center

Login

Don't have an account? Register now (free) for customized features, flight alerts, and more!